createdAt,value
2019-02-26T00:05:23.785Z,45.87
2019-02-26T00:20:33.281Z,50.30
2019-02-26T00:35:39.891Z,42.47
2019-02-26T00:50:44.667Z,53.70
2019-02-26T01:06:02.041Z,48.63
2019-02-26T01:21:08.505Z,37.40
2019-02-26T01:36:16.097Z,38.30
2019-02-26T01:51:22.307Z,35.53
2019-02-26T02:06:30.366Z,32.97
2019-02-26T02:21:38.061Z,37.67
2019-02-26T02:36:43.553Z,42.27
2019-02-26T02:51:49.142Z,41.50
2019-02-26T03:06:55.571Z,39.43
2019-02-26T03:22:02.422Z,44.60
2019-02-26T03:37:08.239Z,38.93
2019-02-26T03:52:15.855Z,43.53
2019-02-26T04:07:22.861Z,42.97
2019-02-26T04:22:31.099Z,44.53
2019-02-26T04:37:38.572Z,43.80
2019-02-26T04:52:59.071Z,31.67
2019-02-26T05:08:04.219Z,30.53
2019-02-26T05:23:10.160Z,32.43
2019-02-26T05:38:16.375Z,36.13
2019-02-26T05:53:21.419Z,26.50
2019-02-26T06:08:29.588Z,31.47
2019-02-26T06:23:34.508Z,32.77
2019-02-26T06:38:40.291Z,33.57
2019-02-26T06:53:49.234Z,36.17
2019-02-26T07:08:53.494Z,33.83
2019-02-26T07:23:58.812Z,32.40
2019-02-26T07:39:20.099Z,39.63
2019-02-26T07:54:25.359Z,31.17
2019-02-26T08:09:32.864Z,35.03
2019-02-26T08:24:38.677Z,29.80
2019-02-26T08:39:57.774Z,33.37
2019-02-26T08:55:03.871Z,26.13
2019-02-26T09:10:28.541Z,22.17
2019-02-26T09:25:34.103Z,20.90
2019-02-26T09:40:39.378Z,17.53
2019-02-26T09:55:44.393Z,14.07
2019-02-26T10:10:51.388Z,14.47
2019-02-26T10:25:57.802Z,15.90
2019-02-26T10:41:05.146Z,12.17
2019-02-26T10:56:10.548Z,15.83
2019-02-26T11:11:16.537Z,9.40
2019-02-26T11:26:22.634Z,9.17
2019-02-26T11:41:39.516Z,9.47
2019-02-26T11:56:47.172Z,6.83
2019-02-26T12:11:51.473Z,8.73
2019-02-26T12:26:58.579Z,8.00
2019-02-26T12:42:03.985Z,7.50
2019-02-26T12:57:08.992Z,5.10
2019-02-26T13:12:16.958Z,8.27
2019-02-26T13:27:21.349Z,5.33
2019-02-26T13:42:26.623Z,7.10
2019-02-26T13:57:32.059Z,4.63
2019-02-26T14:12:37.201Z,6.07
2019-02-26T14:27:43.395Z,3.87
2019-02-26T14:42:48.904Z,3.33
2019-02-26T14:57:53.817Z,8.27
2019-02-26T15:12:59.463Z,9.50
2019-02-26T15:28:05.642Z,4.83
2019-02-26T15:43:12.674Z,5.43
2019-02-26T15:58:17.865Z,6.33
2019-02-26T16:13:23.059Z,8.03
2019-02-26T16:28:28.698Z,7.13
2019-02-26T16:43:33.948Z,16.30
2019-02-26T16:58:39.248Z,10.17
2019-02-26T17:13:44.464Z,10.43
2019-02-26T17:28:50.728Z,11.97
2019-02-26T17:44:15.161Z,14.77
2019-02-26T17:59:20.514Z,11.53
2019-02-26T18:14:26.151Z,15.63
2019-02-26T18:29:31.561Z,17.23
2019-02-26T18:44:37.340Z,59.00
2019-02-26T18:59:54.683Z,47.50
2019-02-26T19:15:12.580Z,58.77
2019-02-26T19:30:21.576Z,33.20
2019-02-26T19:45:38.594Z,21.93
2019-02-26T20:00:56.094Z,17.83
2019-02-26T20:16:01.269Z,17.37
2019-02-26T20:31:21.475Z,21.80
2019-02-26T20:46:26.512Z,17.60
2019-02-26T21:01:32.514Z,25.87
2019-02-26T21:16:38.269Z,18.87
2019-02-26T21:31:43.907Z,18.80
2019-02-26T21:46:49.394Z,18.17
2019-02-26T22:01:54.436Z,20.63
2019-02-26T22:17:11.218Z,16.37
2019-02-26T22:32:27.963Z,19.37
2019-02-26T22:47:33.074Z,17.13
2019-02-26T23:02:40.620Z,18.87
2019-02-26T23:17:46.766Z,24.80
2019-02-26T23:33:04.098Z,16.07
2019-02-26T23:48:21.636Z,16.23
